PWSweather.com
Personal Weather Stations
Station Observations

PoschiavoCH

Lat: 46.31962499999999, Lon: 10.066551000000004

Elevation: 3517

Station Type: WH 1080

http://www.meteoposchiavo.com

High Low Average
Temperature 50.0°F10.0°C 30.0°F-1.1°C 38.0°F3.3°C
Dew Point 29.5°F-1.4°C 8.9°F-12.8°C 17.3°F-8.2°C
Winds 3.5 mph 5.6 kmh Calm Calm 1.0 mph SE1.6 kmh SE
Wind Gusts 10.4 mph16.7 kmh -- 1.0 mph1.6 kmh
Humidity 80% 22% 44%
Pressure 26.76 in906.2 mb 26.49 in897.1 mb -
Precipitation 0.00 in0.0 mm - -
Hour Temp Dew Point Humidity Winds Wind Gusts Pressure Precip Precip Rate Daily Precip Total
12:00 AM 40.0°F4.4°C 28.0°F-2.2°C 62% Calm Calm -- 26.53 in898.4 mb - 0.00 in0.0 mm 0.00 in0.0 mm
12:10 AM 40.0°F4.4°C 29.2°F-1.6°C 65% Calm Calm -- 26.53 in898.4 mb - 0.00 in0.0 mm 0.00 in0.0 mm
12:15 AM 40.0°F4.4°C 28.8°F-1.8°C 64% Calm Calm -- 26.54 in898.7 mb - 0.00 in0.0 mm 0.00 in0.0 mm
12:20 AM 40.0°F4.4°C 28.4°F-2.0°C 63% Calm Calm -- 26.54 in898.7 mb - 0.00 in0.0 mm 0.00 in0.0 mm
12:25 AM 40.0°F4.4°C 27.2°F-2.7°C 60% Calm Calm -- 26.54 in898.7 mb - 0.00 in0.0 mm 0.00 in0.0 mm
12:30 AM 40.0°F4.4°C 28.4°F-2.0°C 63% Calm Calm -- 26.53 in898.4 mb - 0.00 in0.0 mm 0.00 in0.0 mm
12:35 AM 41.0°F5.0°C 24.2°F-4.3°C 51% Calm Calm -- 26.52 in898.1 mb - 0.00 in0.0 mm 0.00 in0.0 mm
12:40 AM 42.0°F5.6°C 25.6°F-3.6°C 52% Calm Calm -- 26.52 in898.1 mb - 0.00 in0.0 mm 0.00 in0.0 mm
12:45 AM 42.0°F5.6°C 24.7°F-4.1°C 50% Calm Calm 1.2 mph1.9 kmh 26.53 in898.4 mb - 0.00 in0.0 mm 0.00 in0.0 mm
12:50 AM 42.0°F5.6°C 24.2°F-4.3°C 49% 1.2 mph N1.9 kmh N 1.2 mph1.9 kmh 26.53 in898.4 mb - 0.00 in0.0 mm 0.00 in0.0 mm
12:55 AM 43.0°F6.1°C 23.6°F-4.7°C 46% Calm Calm -- 26.52 in898.1 mb - 0.00 in0.0 mm 0.00 in0.0 mm
01:00 AM 42.0°F5.6°C 23.7°F-4.6°C 48% Calm Calm -- 26.53 in898.4 mb - 0.00 in0.0 mm 0.00 in0.0 mm
01:10 AM 42.0°F5.6°C 21.1°F-6.1°C 43% Calm Calm -- 26.54 in898.7 mb - 0.00 in0.0 mm 0.00 in0.0 mm
01:15 AM 43.0°F6.1°C 23.1°F-4.9°C 45% Calm Calm -- 26.53 in898.4 mb - 0.00 in0.0 mm 0.00 in0.0 mm
01:20 AM 43.0°F6.1°C 22.5°F-5.3°C 44% Calm Calm -- 26.53 in898.4 mb - 0.00 in0.0 mm 0.00 in0.0 mm
01:25 AM 42.0°F5.6°C 23.7°F-4.6°C 48% Calm Calm 1.2 mph1.9 kmh 26.53 in898.4 mb - 0.00 in0.0 mm 0.00 in0.0 mm
01:30 AM 42.0°F5.6°C 24.7°F-4.1°C 50% Calm Calm -- 26.53 in898.4 mb - 0.00 in0.0 mm 0.00 in0.0 mm
01:35 AM 42.0°F5.6°C 25.2°F-3.8°C 51% Calm Calm -- 26.53 in898.4 mb - 0.00 in0.0 mm 0.00 in0.0 mm
01:40 AM 42.0°F5.6°C 21.6°F-5.8°C 44% Calm Calm -- 26.54 in898.7 mb - 0.00 in0.0 mm 0.00 in0.0 mm
01:45 AM 42.0°F5.6°C 22.7°F-5.2°C 46% Calm Calm -- 26.53 in898.4 mb - 0.00 in0.0 mm 0.00 in0.0 mm
01:50 AM 43.0°F6.1°C 22.5°F-5.3°C 44% Calm Calm -- 26.53 in898.4 mb - 0.00 in0.0 mm 0.00 in0.0 mm
01:55 AM 43.5°F6.4°C 23.0°F-5.0°C 44% Calm Calm 1.2 mph1.9 kmh 26.53 in898.4 mb - 0.00 in0.0 mm 0.00 in0.0 mm
02:00 AM 44.0°F6.7°C 23.5°F-4.7°C 44% Calm Calm 1.2 mph1.9 kmh 26.53 in898.4 mb - 0.00 in0.0 mm 0.00 in0.0 mm
02:10 AM 43.0°F6.1°C 23.1°F-4.9°C 45% Calm Calm -- 26.54 in898.7 mb - 0.00 in0.0 mm 0.00 in0.0 mm
02:15 AM 43.0°F6.1°C 24.6°F-4.1°C 48% Calm Calm -- 26.54 in898.7 mb - 0.00 in0.0 mm 0.00 in0.0 mm
02:20 AM 43.0°F6.1°C 23.1°F-4.9°C 45% Calm Calm -- 26.54 in898.7 mb - 0.00 in0.0 mm 0.00 in0.0 mm
02:25 AM 44.0°F6.7°C 23.5°F-4.7°C 44% Calm Calm -- 26.54 in898.7 mb - 0.00 in0.0 mm 0.00 in0.0 mm
02:30 AM 43.0°F6.1°C 23.1°F-4.9°C 45% Calm Calm 1.2 mph1.9 kmh 26.54 in898.7 mb - 0.00 in0.0 mm 0.00 in0.0 mm
02:35 AM 44.0°F6.7°C 23.5°F-4.7°C 44% 1.2 mph NE1.9 kmh NE 1.2 mph1.9 kmh 26.54 in898.7 mb - 0.00 in0.0 mm 0.00 in0.0 mm
02:40 AM 44.0°F6.7°C 22.9°F-5.1°C 43% Calm Calm -- 26.54 in898.7 mb - 0.00 in0.0 mm 0.00 in0.0 mm
02:45 AM 44.5°F6.9°C 22.3°F-5.4°C 41% Calm Calm -- 26.54 in898.7 mb - 0.00 in0.0 mm 0.00 in0.0 mm
02:50 AM 45.0°F7.2°C 22.1°F-5.5°C 40% Calm Calm 1.2 mph1.9 kmh 26.54 in898.7 mb - 0.00 in0.0 mm 0.00 in0.0 mm
02:55 AM 45.0°F7.2°C 21.5°F-5.8°C 39% 1.2 mph N1.9 kmh N 1.2 mph1.9 kmh 26.54 in898.7 mb - 0.00 in0.0 mm 0.00 in0.0 mm
03:00 AM 45.0°F7.2°C 20.3°F-6.5°C 37% Calm Calm 1.2 mph1.9 kmh 26.53 in898.4 mb - 0.00 in0.0 mm 0.00 in0.0 mm
03:10 AM 44.0°F6.7°C 20.6°F-6.3°C 39% Calm Calm 1.2 mph1.9 kmh 26.53 in898.4 mb - 0.00 in0.0 mm 0.00 in0.0 mm
03:15 AM 44.0°F6.7°C 21.2°F-6.0°C 40% Calm Calm 1.2 mph1.9 kmh 26.53 in898.4 mb - 0.00 in0.0 mm 0.00 in0.0 mm
03:20 AM 44.0°F6.7°C 22.4°F-5.3°C 42% Calm Calm 1.2 mph1.9 kmh 26.54 in898.7 mb - 0.00 in0.0 mm 0.00 in0.0 mm
03:25 AM 43.0°F6.1°C 20.3°F-6.5°C 40% Calm Calm -- 26.54 in898.7 mb - 0.00 in0.0 mm 0.00 in0.0 mm
03:30 AM 44.0°F6.7°C 21.8°F-5.7°C 41% Calm Calm -- 26.55 in899.1 mb - 0.00 in0.0 mm 0.00 in0.0 mm
03:35 AM 44.0°F6.7°C 20.6°F-6.3°C 39% 2.3 mph WSW3.7 kmh WSW 3.5 mph5.6 kmh 26.54 in898.7 mb - 0.00 in0.0 mm 0.00 in0.0 mm
03:40 AM 44.0°F6.7°C 20.0°F-6.7°C 38% 3.5 mph WSW5.6 kmh WSW 3.5 mph5.6 kmh 26.53 in898.4 mb - 0.00 in0.0 mm 0.00 in0.0 mm
03:45 AM 44.0°F6.7°C 21.8°F-5.7°C 41% Calm Calm -- 26.55 in899.1 mb - 0.00 in0.0 mm 0.00 in0.0 mm
03:50 AM 44.0°F6.7°C 22.4°F-5.3°C 42% Calm Calm -- 26.55 in899.1 mb - 0.00 in0.0 mm 0.00 in0.0 mm
03:55 AM 43.0°F6.1°C 21.4°F-5.9°C 42% Calm Calm 1.2 mph1.9 kmh 26.55 in899.1 mb - 0.00 in0.0 mm 0.00 in0.0 mm
04:00 AM 43.0°F6.1°C 22.0°F-5.6°C 43% Calm Calm -- 26.55 in899.1 mb - 0.00 in0.0 mm 0.00 in0.0 mm
04:10 AM 42.0°F5.6°C 22.2°F-5.4°C 45% Calm Calm -- 26.55 in899.1 mb - 0.00 in0.0 mm 0.00 in0.0 mm
04:15 AM 42.0°F5.6°C 21.1°F-6.1°C 43% 1.2 mph W1.9 kmh W 1.2 mph1.9 kmh 26.55 in899.1 mb - 0.00 in0.0 mm 0.00 in0.0 mm
04:20 AM 42.0°F5.6°C 22.2°F-5.4°C 45% Calm Calm -- 26.55 in899.1 mb - 0.00 in0.0 mm 0.00 in0.0 mm
04:25 AM 42.0°F5.6°C 21.6°F-5.8°C 44% Calm Calm 1.2 mph1.9 kmh 26.56 in899.4 mb - 0.00 in0.0 mm 0.00 in0.0 mm
04:30 AM 41.9°F5.5°C 21.6°F-5.8°C 44% Calm Calm 1.2 mph1.9 kmh 26.56 in899.4 mb - 0.00 in0.0 mm 0.00 in0.0 mm
04:35 AM 41.0°F5.0°C 21.8°F-5.7°C 46% Calm Calm -- 26.56 in899.4 mb - 0.00 in0.0 mm 0.00 in0.0 mm
04:40 AM 41.0°F5.0°C 22.8°F-5.1°C 48% 1.2 mph SW1.9 kmh SW 2.3 mph3.7 kmh 26.56 in899.4 mb - 0.00 in0.0 mm 0.00 in0.0 mm
04:45 AM 41.0°F5.0°C 23.8°F-4.6°C 50% Calm Calm -- 26.56 in899.4 mb - 0.00 in0.0 mm 0.00 in0.0 mm
04:50 AM 40.0°F4.4°C 22.4°F-5.3°C 49% Calm Calm -- 26.56 in899.4 mb - 0.00 in0.0 mm 0.00 in0.0 mm
04:55 AM 40.0°F4.4°C 22.4°F-5.3°C 49% Calm Calm -- 26.56 in899.4 mb - 0.00 in0.0 mm 0.00 in0.0 mm
05:00 AM 40.0°F4.4°C 21.9°F-5.6°C 48% Calm Calm 1.2 mph1.9 kmh 26.56 in899.4 mb - 0.00 in0.0 mm 0.00 in0.0 mm
05:10 AM 40.0°F4.4°C 19.8°F-6.8°C 44% Calm Calm 1.2 mph1.9 kmh 26.57 in899.8 mb - 0.00 in0.0 mm 0.00 in0.0 mm
05:15 AM 40.0°F4.4°C 19.3°F-7.1°C 43% Calm Calm 1.2 mph1.9 kmh 26.57 in899.8 mb - 0.00 in0.0 mm 0.00 in0.0 mm
05:20 AM 40.0°F4.4°C 18.7°F-7.4°C 42% Calm Calm 1.2 mph1.9 kmh 26.57 in899.8 mb - 0.00 in0.0 mm 0.00 in0.0 mm
05:25 AM 40.0°F4.4°C 19.3°F-7.1°C 43% Calm Calm -- 26.58 in900.1 mb - 0.00 in0.0 mm 0.00 in0.0 mm
05:30 AM 40.0°F4.4°C 18.2°F-7.7°C 41% Calm Calm 1.2 mph1.9 kmh 26.56 in899.4 mb - 0.00 in0.0 mm 0.00 in0.0 mm
05:35 AM 40.0°F4.4°C 17.6°F-8.0°C 40% 2.3 mph WSW3.7 kmh WSW 2.3 mph3.7 kmh 26.57 in899.8 mb - 0.00 in0.0 mm 0.00 in0.0 mm
05:40 AM 40.0°F4.4°C 17.6°F-8.0°C 40% Calm Calm -- 26.57 in899.8 mb - 0.00 in0.0 mm 0.00 in0.0 mm
05:45 AM 39.0°F3.9°C 19.4°F-7.0°C 45% Calm Calm -- 26.58 in900.1 mb - 0.00 in0.0 mm 0.00 in0.0 mm
05:50 AM 39.0°F3.9°C 18.4°F-7.6°C 43% Calm Calm 1.2 mph1.9 kmh 26.57 in899.8 mb - 0.00 in0.0 mm 0.00 in0.0 mm
05:55 AM 40.0°F4.4°C 17.6°F-8.0°C 40% 3.5 mph WSW5.6 kmh WSW 5.8 mph9.3 kmh 26.57 in899.8 mb - 0.00 in0.0 mm 0.00 in0.0 mm
06:00 AM 39.0°F3.9°C 17.8°F-7.9°C 42% Calm Calm -- 26.57 in899.8 mb - 0.00 in0.0 mm 0.00 in0.0 mm
06:10 AM 38.0°F3.3°C 18.5°F-7.5°C 45% Calm Calm 1.2 mph1.9 kmh 26.57 in899.8 mb - 0.00 in0.0 mm 0.00 in0.0 mm
06:15 AM 38.0°F3.3°C 18.0°F-7.8°C 44% Calm Calm -- 26.58 in900.1 mb - 0.00 in0.0 mm 0.00 in0.0 mm
06:20 AM 38.0°F3.3°C 19.0°F-7.2°C 46% Calm Calm -- 26.57 in899.8 mb - 0.00 in0.0 mm 0.00 in0.0 mm
06:25 AM 37.0°F2.8°C 18.6°F-7.4°C 47% Calm Calm -- 26.57 in899.8 mb - 0.00 in0.0 mm 0.00 in0.0 mm
06:30 AM 37.0°F2.8°C 18.1°F-7.7°C 46% Calm Calm -- 26.58 in900.1 mb - 0.00 in0.0 mm 0.00 in0.0 mm
06:35 AM 37.0°F2.8°C 17.6°F-8.0°C 45% Calm Calm -- 26.56 in899.4 mb - 0.00 in0.0 mm 0.00 in0.0 mm
06:40 AM 37.0°F2.8°C 19.6°F-6.9°C 49% Calm Calm -- 26.57 in899.8 mb - 0.00 in0.0 mm 0.00 in0.0 mm
06:45 AM 37.0°F2.8°C 19.6°F-6.9°C 49% Calm Calm -- 26.57 in899.8 mb - 0.00 in0.0 mm 0.00 in0.0 mm
06:50 AM 37.0°F2.8°C 18.6°F-7.4°C 47% Calm Calm -- 26.57 in899.8 mb - 0.00 in0.0 mm 0.00 in0.0 mm
06:55 AM 37.0°F2.8°C 18.1°F-7.7°C 46% Calm Calm -- 26.57 in899.8 mb - 0.00 in0.0 mm 0.00 in0.0 mm
07:00 AM 37.0°F2.8°C 17.6°F-8.0°C 45% Calm Calm -- 26.57 in899.8 mb - 0.00 in0.0 mm 0.00 in0.0 mm
07:10 AM 38.0°F3.3°C 14.6°F-9.7°C 38% Calm Calm -- 26.57 in899.8 mb - 0.00 in0.0 mm 0.00 in0.0 mm
07:15 AM 38.0°F3.3°C 15.8°F-9.0°C 40% Calm Calm 1.2 mph1.9 kmh 26.57 in899.8 mb - 0.00 in0.0 mm 0.00 in0.0 mm
07:20 AM 38.0°F3.3°C 16.4°F-8.7°C 41% Calm Calm -- 26.57 in899.8 mb - 0.00 in0.0 mm 0.00 in0.0 mm
07:25 AM 38.0°F3.3°C 16.9°F-8.4°C 42% Calm Calm -- 26.57 in899.8 mb - 0.00 in0.0 mm 0.00 in0.0 mm
07:30 AM 38.0°F3.3°C 15.2°F-9.3°C 39% Calm Calm 1.2 mph1.9 kmh 26.57 in899.8 mb - 0.00 in0.0 mm 0.00 in0.0 mm
07:35 AM 38.0°F3.3°C 14.6°F-9.7°C 38% Calm Calm 1.2 mph1.9 kmh 26.57 in899.8 mb - 0.00 in0.0 mm 0.00 in0.0 mm
07:40 AM 38.0°F3.3°C 15.2°F-9.3°C 39% Calm Calm -- 26.57 in899.8 mb - 0.00 in0.0 mm 0.00 in0.0 mm
07:45 AM 38.0°F3.3°C 15.8°F-9.0°C 40% Calm Calm -- 26.57 in899.8 mb - 0.00 in0.0 mm 0.00 in0.0 mm
07:50 AM 38.0°F3.3°C 15.2°F-9.3°C 39% Calm Calm -- 26.56 in899.4 mb - 0.00 in0.0 mm 0.00 in0.0 mm
07:55 AM 38.0°F3.3°C 15.2°F-9.3°C 39% Calm Calm -- 26.56 in899.4 mb - 0.00 in0.0 mm 0.00 in0.0 mm
08:00 AM 38.0°F3.3°C 15.2°F-9.3°C 39% Calm Calm -- 26.57 in899.8 mb - 0.00 in0.0 mm 0.00 in0.0 mm
08:10 AM 37.0°F2.8°C 14.9°F-9.5°C 40% Calm Calm -- 26.56 in899.4 mb - 0.00 in0.0 mm 0.00 in0.0 mm
08:15 AM 37.0°F2.8°C 13.7°F-10.2°C 38% Calm Calm -- 26.56 in899.4 mb - 0.00 in0.0 mm 0.00 in0.0 mm
08:20 AM 37.0°F2.8°C 13.1°F-10.5°C 37% Calm Calm -- 26.56 in899.4 mb - 0.00 in0.0 mm 0.00 in0.0 mm
08:25 AM 37.0°F2.8°C 14.3°F-9.8°C 39% Calm Calm -- 26.57 in899.8 mb - 0.00 in0.0 mm 0.00 in0.0 mm
08:30 AM 37.0°F2.8°C 15.5°F-9.2°C 41% Calm Calm -- 26.57 in899.8 mb - 0.00 in0.0 mm 0.00 in0.0 mm
08:35 AM 37.0°F2.8°C 13.7°F-10.2°C 38% Calm Calm -- 26.57 in899.8 mb - 0.00 in0.0 mm 0.00 in0.0 mm
08:40 AM 36.0°F2.2°C 14.0°F-10.0°C 40% Calm Calm -- 26.57 in899.8 mb - 0.00 in0.0 mm 0.00 in0.0 mm
08:45 AM 38.0°F3.3°C 12.7°F-10.7°C 35% Calm Calm -- 26.57 in899.8 mb - 0.00 in0.0 mm 0.00 in0.0 mm
08:50 AM 39.0°F3.9°C 13.6°F-10.2°C 35% Calm Calm -- 26.56 in899.4 mb - 0.00 in0.0 mm 0.00 in0.0 mm
08:55 AM 39.9°F4.4°C 11.7°F-11.3°C 31% Calm Calm -- 26.57 in899.8 mb - 0.00 in0.0 mm 0.00 in0.0 mm
09:00 AM 40.0°F4.4°C 11.8°F-11.2°C 31% Calm Calm 1.2 mph1.9 kmh 26.57 in899.8 mb - 0.00 in0.0 mm 0.00 in0.0 mm
09:10 AM 41.0°F5.0°C 11.9°F-11.2°C 30% Calm Calm -- 26.56 in899.4 mb - 0.00 in0.0 mm 0.00 in0.0 mm
09:15 AM 41.0°F5.0°C 11.1°F-11.6°C 29% 1.2 mph NW1.9 kmh NW 1.2 mph1.9 kmh 26.56 in899.4 mb - 0.00 in0.0 mm 0.00 in0.0 mm
09:20 AM 42.0°F5.6°C 12.0°F-11.1°C 29% 1.2 mph NNW1.9 kmh NNW 3.5 mph5.6 kmh 26.56 in899.4 mb - 0.00 in0.0 mm 0.00 in0.0 mm
09:25 AM 42.0°F5.6°C 13.5°F-10.3°C 31% 1.2 mph NE1.9 kmh NE 1.2 mph1.9 kmh 26.55 in899.1 mb - 0.00 in0.0 mm 0.00 in0.0 mm
09:30 AM 42.0°F5.6°C 12.8°F-10.7°C 30% Calm Calm 1.2 mph1.9 kmh 26.56 in899.4 mb - 0.00 in0.0 mm 0.00 in0.0 mm
09:35 AM 43.0°F6.1°C 13.6°F-10.2°C 30% Calm Calm -- 26.55 in899.1 mb - 0.00 in0.0 mm 0.00 in0.0 mm
09:40 AM 43.0°F6.1°C 12.9°F-10.6°C 29% Calm Calm -- 26.55 in899.1 mb - 0.00 in0.0 mm 0.00 in0.0 mm
09:45 AM 43.0°F6.1°C 12.1°F-11.1°C 28% Calm Calm -- 26.55 in899.1 mb - 0.00 in0.0 mm 0.00 in0.0 mm
09:50 AM 44.0°F6.7°C 12.9°F-10.6°C 28% Calm Calm -- 26.55 in899.1 mb - 0.00 in0.0 mm 0.00 in0.0 mm
09:55 AM 44.0°F6.7°C 12.9°F-10.6°C 28% Calm Calm -- 26.54 in898.7 mb - 0.00 in0.0 mm 0.00 in0.0 mm
10:00 AM 44.0°F6.7°C 11.3°F-11.5°C 26% Calm Calm -- 26.54 in898.7 mb - 0.00 in0.0 mm 0.00 in0.0 mm
10:10 AM 44.0°F6.7°C 12.9°F-10.6°C 28% Calm Calm -- 26.55 in899.1 mb - 0.00 in0.0 mm 0.00 in0.0 mm
10:15 AM 43.0°F6.1°C 11.2°F-11.6°C 27% Calm Calm 1.2 mph1.9 kmh 26.54 in898.7 mb - 0.00 in0.0 mm 0.00 in0.0 mm
10:20 AM 43.9°F6.6°C 12.0°F-11.1°C 27% Calm Calm 1.2 mph1.9 kmh 26.54 in898.7 mb - 0.00 in0.0 mm 0.00 in0.0 mm
10:25 AM 44.0°F6.7°C 12.1°F-11.1°C 27% Calm Calm -- 26.54 in898.7 mb - 0.00 in0.0 mm 0.00 in0.0 mm
10:30 AM 44.0°F6.7°C 12.1°F-11.1°C 27% Calm Calm -- 26.54 in898.7 mb - 0.00 in0.0 mm 0.00 in0.0 mm
10:35 AM 45.0°F7.2°C 13.0°F-10.6°C 27% 1.2 mph NW1.9 kmh NW 1.2 mph1.9 kmh 26.53 in898.4 mb - 0.00 in0.0 mm 0.00 in0.0 mm
10:40 AM 46.0°F7.8°C 13.0°F-10.6°C 26% Calm Calm -- 26.53 in898.4 mb - 0.00 in0.0 mm 0.00 in0.0 mm
10:45 AM 46.0°F7.8°C 12.1°F-11.1°C 25% 1.2 mph N1.9 kmh N 1.2 mph1.9 kmh 26.52 in898.1 mb - 0.00 in0.0 mm 0.00 in0.0 mm
10:50 AM 48.0°F8.9°C 13.8°F-10.1°C 25% 1.2 mph NE1.9 kmh NE 1.2 mph1.9 kmh 26.51 in897.7 mb - 0.00 in0.0 mm 0.00 in0.0 mm
10:55 AM 49.0°F9.4°C 12.7°F-10.7°C 23% Calm Calm -- 26.50 in897.4 mb - 0.00 in0.0 mm 0.00 in0.0 mm
11:00 AM 50.0°F10.0°C 13.6°F-10.2°C 23% Calm Calm -- 26.50 in897.4 mb - 0.00 in0.0 mm 0.00 in0.0 mm
11:10 AM 47.9°F8.8°C 13.7°F-10.2°C 25% Calm Calm 1.2 mph1.9 kmh 26.50 in897.4 mb - 0.00 in0.0 mm 0.00 in0.0 mm
11:15 AM 47.0°F8.3°C 13.8°F-10.1°C 26% Calm Calm -- 26.50 in897.4 mb - 0.00 in0.0 mm 0.00 in0.0 mm
11:20 AM 46.0°F7.8°C 9.2°F-12.7°C 22% Calm Calm -- 26.50 in897.4 mb - 0.00 in0.0 mm 0.00 in0.0 mm
11:25 AM 46.0°F7.8°C 12.1°F-11.1°C 25% Calm Calm -- 26.51 in897.7 mb - 0.00 in0.0 mm 0.00 in0.0 mm
11:30 AM 45.0°F7.2°C 10.3°F-12.1°C 24% 2.3 mph WNW3.7 kmh WNW 2.3 mph3.7 kmh 26.50 in897.4 mb - 0.00 in0.0 mm 0.00 in0.0 mm
11:35 AM 44.0°F6.7°C 12.9°F-10.6°C 28% 2.3 mph W3.7 kmh W 2.3 mph3.7 kmh 26.51 in897.7 mb - 0.00 in0.0 mm 0.00 in0.0 mm
11:40 AM 44.0°F6.7°C 16.0°F-8.9°C 32% 3.5 mph WNW5.6 kmh WNW 5.8 mph9.3 kmh 26.52 in898.1 mb - 0.00 in0.0 mm 0.00 in0.0 mm
11:45 AM 42.0°F5.6°C 17.6°F-8.0°C 37% 3.5 mph SW5.6 kmh SW 10.4 mph16.7 kmh 26.54 in898.7 mb - 0.00 in0.0 mm 0.00 in0.0 mm
11:50 AM 41.6°F5.3°C 19.0°F-7.2°C 40% 2.3 mph SSW3.7 kmh SSW 10.4 mph16.7 kmh 26.55 in899.1 mb - 0.00 in0.0 mm 0.00 in0.0 mm
11:55 AM 41.0°F5.0°C 21.3°F-5.9°C 45% 2.3 mph ENE3.7 kmh ENE 2.3 mph3.7 kmh 26.56 in899.4 mb - 0.00 in0.0 mm 0.00 in0.0 mm
12:00 PM 39.0°F3.9°C 25.5°F-3.6°C 58% 1.2 mph E1.9 kmh E 3.5 mph5.6 kmh 26.58 in900.1 mb - 0.00 in0.0 mm 0.00 in0.0 mm
12:10 PM 36.0°F2.2°C 28.8°F-1.8°C 75% 1.2 mph NE1.9 kmh NE 1.2 mph1.9 kmh 26.58 in900.1 mb - 0.00 in0.0 mm 0.00 in0.0 mm
12:15 PM 35.0°F1.7°C 29.5°F-1.4°C 80% Calm Calm 1.2 mph1.9 kmh 26.58 in900.1 mb - 0.00 in0.0 mm 0.00 in0.0 mm
12:20 PM 35.0°F1.7°C 27.5°F-2.5°C 74% 2.3 mph SW3.7 kmh SW 3.5 mph5.6 kmh 26.58 in900.1 mb - 0.00 in0.0 mm 0.00 in0.0 mm
12:25 PM 36.0°F2.2°C 26.5°F-3.1°C 68% Calm Calm 1.2 mph1.9 kmh 26.58 in900.1 mb - 0.00 in0.0 mm 0.00 in0.0 mm
12:30 PM 36.6°F2.6°C 25.6°F-3.6°C 64% Calm Calm 1.2 mph1.9 kmh 26.59 in900.4 mb - 0.00 in0.0 mm 0.00 in0.0 mm
12:35 PM 37.0°F2.8°C 24.8°F-4.0°C 61% Calm Calm 1.2 mph1.9 kmh 26.59 in900.4 mb - 0.00 in0.0 mm 0.00 in0.0 mm
12:40 PM 38.0°F3.3°C 25.7°F-3.5°C 61% Calm Calm 1.2 mph1.9 kmh 26.57 in899.8 mb - 0.00 in0.0 mm 0.00 in0.0 mm
12:45 PM 37.0°F2.8°C 26.3°F-3.2°C 65% Calm Calm 1.2 mph1.9 kmh 26.57 in899.8 mb - 0.00 in0.0 mm 0.00 in0.0 mm
12:50 PM 38.0°F3.3°C 24.5°F-4.2°C 58% 1.2 mph ENE1.9 kmh ENE 2.3 mph3.7 kmh 26.57 in899.8 mb - 0.00 in0.0 mm 0.00 in0.0 mm
12:55 PM 38.0°F3.3°C 23.7°F-4.6°C 56% 1.2 mph NE1.9 kmh NE 2.3 mph3.7 kmh 26.57 in899.8 mb - 0.00 in0.0 mm 0.00 in0.0 mm
01:00 PM 39.0°F3.9°C 22.8°F-5.1°C 52% 1.2 mph NE1.9 kmh NE 1.2 mph1.9 kmh 26.56 in899.4 mb - 0.00 in0.0 mm 0.00 in0.0 mm
01:10 PM 39.9°F4.4°C 17.5°F-8.1°C 40% 1.2 mph SSW1.9 kmh SSW 3.5 mph5.6 kmh 26.54 in898.7 mb - 0.00 in0.0 mm 0.00 in0.0 mm
01:15 PM 40.2°F4.6°C 16.6°F-8.6°C 38% 2.3 mph SSW3.7 kmh SSW 3.5 mph5.6 kmh 26.54 in898.7 mb - 0.00 in0.0 mm 0.00 in0.0 mm
01:20 PM 41.0°F5.0°C 16.0°F-8.9°C 36% 1.2 mph NE1.9 kmh NE 2.3 mph3.7 kmh 26.53 in898.4 mb - 0.00 in0.0 mm 0.00 in0.0 mm
01:25 PM 41.0°F5.0°C 14.7°F-9.6°C 34% 1.2 mph N1.9 kmh N 2.3 mph3.7 kmh 26.53 in898.4 mb - 0.00 in0.0 mm 0.00 in0.0 mm
01:30 PM 41.0°F5.0°C 13.4°F-10.3°C 32% Calm Calm 1.2 mph1.9 kmh 26.53 in898.4 mb - 0.00 in0.0 mm 0.00 in0.0 mm
01:35 PM 41.0°F5.0°C 10.3°F-12.1°C 28% 1.2 mph NNW1.9 kmh NNW 1.2 mph1.9 kmh 26.54 in898.7 mb - 0.00 in0.0 mm 0.00 in0.0 mm
01:40 PM 44.0°F6.7°C 9.5°F-12.5°C 24% 1.2 mph N1.9 kmh N 1.2 mph1.9 kmh 26.53 in898.4 mb - 0.00 in0.0 mm 0.00 in0.0 mm
01:45 PM 47.0°F8.3°C 11.1°F-11.6°C 23% Calm Calm -- 26.52 in898.1 mb - 0.00 in0.0 mm 0.00 in0.0 mm
01:50 PM 49.0°F9.4°C 14.7°F-9.6°C 25% Calm Calm -- 26.51 in897.7 mb - 0.00 in0.0 mm 0.00 in0.0 mm
01:55 PM 48.4°F9.1°C 13.2°F-10.4°C 24% 1.2 mph N1.9 kmh N 1.2 mph1.9 kmh 26.50 in897.4 mb - 0.00 in0.0 mm 0.00 in0.0 mm
02:00 PM 48.0°F8.9°C 11.9°F-11.2°C 23% 1.2 mph NNW1.9 kmh NNW 1.2 mph1.9 kmh 26.49 in897.1 mb - 0.00 in0.0 mm 0.00 in0.0 mm
02:10 PM 46.0°F7.8°C 13.8°F-10.1°C 27% Calm Calm -- 26.49 in897.1 mb - 0.00 in0.0 mm 0.00 in0.0 mm
02:15 PM 46.0°F7.8°C 14.7°F-9.6°C 28% Calm Calm 1.2 mph1.9 kmh 26.49 in897.1 mb - 0.00 in0.0 mm 0.00 in0.0 mm
02:20 PM 46.0°F7.8°C 12.1°F-11.1°C 25% 1.2 mph WNW1.9 kmh WNW 1.2 mph1.9 kmh 26.50 in897.4 mb - 0.00 in0.0 mm 0.00 in0.0 mm
02:25 PM 44.0°F6.7°C 9.5°F-12.5°C 24% 3.5 mph NNE5.6 kmh NNE 5.8 mph9.3 kmh 26.50 in897.4 mb - 0.00 in0.0 mm 0.00 in0.0 mm
02:30 PM 43.0°F6.1°C 13.6°F-10.2°C 30% Calm Calm -- 26.50 in897.4 mb - 0.00 in0.0 mm 0.00 in0.0 mm
02:35 PM 42.2°F5.7°C 11.4°F-11.4°C 28% Calm Calm 1.2 mph1.9 kmh 26.51 in897.7 mb - 0.00 in0.0 mm 0.00 in0.0 mm
02:40 PM 42.0°F5.6°C 11.2°F-11.6°C 28% Calm Calm 1.2 mph1.9 kmh 26.51 in897.7 mb - 0.00 in0.0 mm 0.00 in0.0 mm
02:45 PM 42.0°F5.6°C 12.8°F-10.7°C 30% Calm Calm 1.2 mph1.9 kmh 26.51 in897.7 mb - 0.00 in0.0 mm 0.00 in0.0 mm
02:50 PM 42.0°F5.6°C 10.4°F-12.0°C 27% 3.5 mph W5.6 kmh W 3.5 mph5.6 kmh 26.51 in897.7 mb - 0.00 in0.0 mm 0.00 in0.0 mm
02:55 PM 41.0°F5.0°C 11.1°F-11.6°C 29% 2.3 mph SE3.7 kmh SE 3.5 mph5.6 kmh 26.52 in898.1 mb - 0.00 in0.0 mm 0.00 in0.0 mm
03:00 PM 40.0°F4.4°C 12.5°F-10.8°C 32% 2.3 mph S3.7 kmh S 3.5 mph5.6 kmh 26.52 in898.1 mb - 0.00 in0.0 mm 0.00 in0.0 mm
03:10 PM 39.0°F3.9°C 13.6°F-10.2°C 35% Calm Calm 1.2 mph1.9 kmh 26.52 in898.1 mb - 0.00 in0.0 mm 0.00 in0.0 mm
03:15 PM 40.0°F4.4°C 13.2°F-10.4°C 33% Calm Calm -- 26.52 in898.1 mb - 0.00 in0.0 mm 0.00 in0.0 mm
03:20 PM 40.0°F4.4°C 13.2°F-10.4°C 33% Calm Calm -- 26.52 in898.1 mb - 0.00 in0.0 mm 0.00 in0.0 mm
03:25 PM 40.0°F4.4°C 12.5°F-10.8°C 32% Calm Calm -- 26.51 in897.7 mb - 0.00 in0.0 mm 0.00 in0.0 mm
03:30 PM 40.0°F4.4°C 11.8°F-11.2°C 31% 2.3 mph W3.7 kmh W 3.5 mph5.6 kmh 26.52 in898.1 mb - 0.00 in0.0 mm 0.00 in0.0 mm
03:35 PM 40.0°F4.4°C 13.8°F-10.1°C 34% 1.2 mph NE1.9 kmh NE 1.2 mph1.9 kmh 26.54 in898.7 mb - 0.00 in0.0 mm 0.00 in0.0 mm
03:40 PM 39.0°F3.9°C 14.3°F-9.8°C 36% 2.3 mph W3.7 kmh W 2.3 mph3.7 kmh 26.55 in899.1 mb - 0.00 in0.0 mm 0.00 in0.0 mm
03:45 PM 38.0°F3.3°C 17.5°F-8.1°C 43% 1.2 mph ESE1.9 kmh ESE 2.3 mph3.7 kmh 26.55 in899.1 mb - 0.00 in0.0 mm 0.00 in0.0 mm
03:50 PM 37.0°F2.8°C 22.3°F-5.4°C 55% Calm Calm -- 26.57 in899.8 mb - 0.00 in0.0 mm 0.00 in0.0 mm
03:55 PM 33.0°F0.6°C 21.4°F-5.9°C 62% 1.2 mph WNW1.9 kmh WNW 2.3 mph3.7 kmh 26.60 in900.8 mb - 0.00 in0.0 mm 0.00 in0.0 mm
04:00 PM 32.5°F0.3°C 26.4°F-3.1°C 78% Calm Calm 2.3 mph3.7 kmh 26.61 in901.1 mb - 0.00 in0.0 mm 0.00 in0.0 mm
04:10 PM 32.0°F0.0°C 24.0°F-4.4°C 72% 1.2 mph WNW1.9 kmh WNW 1.2 mph1.9 kmh 26.62 in901.5 mb - 0.00 in0.0 mm 0.00 in0.0 mm
04:15 PM 32.0°F0.0°C 20.4°F-6.4°C 62% 2.3 mph ENE3.7 kmh ENE 5.8 mph9.3 kmh 26.64 in902.1 mb - 0.00 in0.0 mm 0.00 in0.0 mm
04:20 PM 32.0°F0.0°C 20.1°F-6.6°C 61% 1.2 mph ENE1.9 kmh ENE 2.3 mph3.7 kmh 26.64 in902.1 mb - 0.00 in0.0 mm 0.00 in0.0 mm
04:25 PM 33.0°F0.6°C 18.1°F-7.7°C 54% Calm Calm 1.2 mph1.9 kmh 26.65 in902.5 mb - 0.00 in0.0 mm 0.00 in0.0 mm
04:30 PM 33.0°F0.6°C 15.9°F-8.9°C 49% 2.3 mph NE3.7 kmh NE 3.5 mph5.6 kmh 26.65 in902.5 mb - 0.00 in0.0 mm 0.00 in0.0 mm
04:35 PM 34.0°F1.1°C 16.8°F-8.4°C 49% Calm Calm 1.2 mph1.9 kmh 26.64 in902.1 mb - 0.00 in0.0 mm 0.00 in0.0 mm
04:40 PM 34.6°F1.4°C 16.9°F-8.4°C 48% Calm Calm 1.2 mph1.9 kmh 26.65 in902.5 mb - 0.00 in0.0 mm 0.00 in0.0 mm
04:45 PM 35.0°F1.7°C 16.8°F-8.4°C 47% Calm Calm -- 26.65 in902.5 mb - 0.00 in0.0 mm 0.00 in0.0 mm
04:50 PM 35.0°F1.7°C 14.7°F-9.6°C 43% Calm Calm -- 26.64 in902.1 mb - 0.00 in0.0 mm 0.00 in0.0 mm
04:55 PM 34.0°F1.1°C 13.8°F-10.1°C 43% Calm Calm -- 26.65 in902.5 mb - 0.00 in0.0 mm 0.00 in0.0 mm
05:00 PM 33.0°F0.6°C 12.4°F-10.9°C 42% 3.5 mph W5.6 kmh W 5.8 mph9.3 kmh 26.65 in902.5 mb - 0.00 in0.0 mm 0.00 in0.0 mm
05:10 PM 33.0°F0.6°C 14.4°F-9.8°C 46% 2.3 mph W3.7 kmh W 10.4 mph16.7 kmh 26.66 in902.8 mb - 0.00 in0.0 mm 0.00 in0.0 mm
05:15 PM 33.0°F0.6°C 14.4°F-9.8°C 46% Calm Calm -- 26.65 in902.5 mb - 0.00 in0.0 mm 0.00 in0.0 mm
05:20 PM 32.2°F0.1°C 14.2°F-9.9°C 47% 1.2 mph NE1.9 kmh NE 1.2 mph1.9 kmh 26.65 in902.5 mb - 0.00 in0.0 mm 0.00 in0.0 mm
05:25 PM 32.0°F0.0°C 13.5°F-10.3°C 46% 1.2 mph ESE1.9 kmh ESE 5.8 mph9.3 kmh 26.65 in902.5 mb - 0.00 in0.0 mm 0.00 in0.0 mm
05:30 PM 32.0°F0.0°C 12.0°F-11.1°C 43% 3.5 mph S5.6 kmh S 5.8 mph9.3 kmh 26.65 in902.5 mb - 0.00 in0.0 mm 0.00 in0.0 mm
05:35 PM 32.0°F0.0°C 12.0°F-11.1°C 43% 2.3 mph S3.7 kmh S 5.8 mph9.3 kmh 26.64 in902.1 mb - 0.00 in0.0 mm 0.00 in0.0 mm
05:40 PM 32.0°F0.0°C 12.5°F-10.8°C 44% 1.2 mph NE1.9 kmh NE 1.2 mph1.9 kmh 26.64 in902.1 mb - 0.00 in0.0 mm 0.00 in0.0 mm
05:45 PM 32.0°F0.0°C 13.0°F-10.6°C 45% Calm Calm 1.2 mph1.9 kmh 26.64 in902.1 mb - 0.00 in0.0 mm 0.00 in0.0 mm
05:50 PM 32.0°F0.0°C 14.5°F-9.7°C 48% 1.2 mph NE1.9 kmh NE 2.3 mph3.7 kmh 26.64 in902.1 mb - 0.00 in0.0 mm 0.00 in0.0 mm
05:55 PM 31.0°F-0.6°C 15.0°F-9.4°C 51% Calm Calm 1.2 mph1.9 kmh 26.65 in902.5 mb - 0.00 in0.0 mm 0.00 in0.0 mm
06:00 PM 31.0°F-0.6°C 15.0°F-9.4°C 51% Calm Calm 1.2 mph1.9 kmh 26.65 in902.5 mb - 0.00 in0.0 mm 0.00 in0.0 mm
06:10 PM 31.0°F-0.6°C 13.1°F-10.5°C 47% 3.5 mph S5.6 kmh S 3.5 mph5.6 kmh 26.65 in902.5 mb - 0.00 in0.0 mm 0.00 in0.0 mm
06:15 PM 32.0°F0.0°C 14.5°F-9.7°C 48% 1.2 mph SE1.9 kmh SE 2.3 mph3.7 kmh 26.67 in903.2 mb - 0.00 in0.0 mm 0.00 in0.0 mm
06:20 PM 31.0°F-0.6°C 13.1°F-10.5°C 47% 1.2 mph NW1.9 kmh NW 2.3 mph3.7 kmh 26.66 in902.8 mb - 0.00 in0.0 mm 0.00 in0.0 mm
06:25 PM 31.0°F-0.6°C 14.0°F-10.0°C 49% 3.5 mph SSE5.6 kmh SSE 3.5 mph5.6 kmh 26.67 in903.2 mb - 0.00 in0.0 mm 0.00 in0.0 mm
06:30 PM 31.0°F-0.6°C 15.4°F-9.2°C 52% 2.3 mph WSW3.7 kmh WSW 2.3 mph3.7 kmh 26.67 in903.2 mb - 0.00 in0.0 mm 0.00 in0.0 mm
06:35 PM 31.0°F-0.6°C 16.3°F-8.7°C 54% 2.3 mph SW3.7 kmh SW 2.3 mph3.7 kmh 26.68 in903.5 mb - 0.00 in0.0 mm 0.00 in0.0 mm
06:40 PM 30.0°F-1.1°C 17.0°F-8.3°C 58% Calm Calm -- 26.68 in903.5 mb - 0.00 in0.0 mm 0.00 in0.0 mm
06:45 PM 30.0°F-1.1°C 16.6°F-8.6°C 57% 1.2 mph NW1.9 kmh NW 2.3 mph3.7 kmh 26.68 in903.5 mb - 0.00 in0.0 mm 0.00 in0.0 mm
06:50 PM 30.0°F-1.1°C 16.6°F-8.6°C 57% 1.2 mph WNW1.9 kmh WNW 2.3 mph3.7 kmh 26.68 in903.5 mb - 0.00 in0.0 mm 0.00 in0.0 mm
06:55 PM 30.0°F-1.1°C 17.4°F-8.1°C 59% 1.2 mph W1.9 kmh W 1.2 mph1.9 kmh 26.68 in903.5 mb - 0.00 in0.0 mm 0.00 in0.0 mm
07:00 PM 30.0°F-1.1°C 18.5°F-7.5°C 62% Calm Calm -- 26.68 in903.5 mb - 0.00 in0.0 mm 0.00 in0.0 mm
07:10 PM 30.0°F-1.1°C 17.4°F-8.1°C 59% 1.2 mph WNW1.9 kmh WNW 1.2 mph1.9 kmh 26.67 in903.2 mb - 0.00 in0.0 mm 0.00 in0.0 mm
07:15 PM 30.0°F-1.1°C 17.8°F-7.9°C 60% Calm Calm -- 26.68 in903.5 mb - 0.00 in0.0 mm 0.00 in0.0 mm
07:20 PM 30.0°F-1.1°C 17.4°F-8.1°C 59% Calm Calm -- 26.68 in903.5 mb - 0.00 in0.0 mm 0.00 in0.0 mm
07:25 PM 30.0°F-1.1°C 15.3°F-9.3°C 54% Calm Calm 1.2 mph1.9 kmh 26.67 in903.2 mb - 0.00 in0.0 mm 0.00 in0.0 mm
07:30 PM 30.0°F-1.1°C 16.2°F-8.8°C 56% Calm Calm 1.2 mph1.9 kmh 26.67 in903.2 mb - 0.00 in0.0 mm 0.00 in0.0 mm
07:35 PM 30.6°F-0.8°C 17.6°F-8.0°C 58% Calm Calm 2.3 mph3.7 kmh 26.67 in903.2 mb - 0.00 in0.0 mm 0.00 in0.0 mm
07:40 PM 30.0°F-1.1°C 17.8°F-7.9°C 60% 1.2 mph SSW1.9 kmh SSW 2.3 mph3.7 kmh 26.68 in903.5 mb - 0.00 in0.0 mm 0.00 in0.0 mm
07:45 PM 30.0°F-1.1°C 18.5°F-7.5°C 62% Calm Calm 1.2 mph1.9 kmh 26.69 in903.8 mb - 0.00 in0.0 mm 0.00 in0.0 mm
07:50 PM 30.0°F-1.1°C 17.8°F-7.9°C 60% 1.2 mph WSW1.9 kmh WSW 2.3 mph3.7 kmh 26.70 in904.2 mb - 0.00 in0.0 mm 0.00 in0.0 mm
07:55 PM 30.0°F-1.1°C 17.8°F-7.9°C 60% 3.5 mph WSW5.6 kmh WSW 5.8 mph9.3 kmh 26.70 in904.2 mb - 0.00 in0.0 mm 0.00 in0.0 mm
08:00 PM 30.0°F-1.1°C 18.2°F-7.7°C 61% 1.2 mph SW1.9 kmh SW 2.3 mph3.7 kmh 26.71 in904.5 mb - 0.00 in0.0 mm 0.00 in0.0 mm
08:10 PM 30.0°F-1.1°C 18.2°F-7.7°C 61% Calm Calm -- 26.70 in904.2 mb - 0.00 in0.0 mm 0.00 in0.0 mm
08:15 PM 30.0°F-1.1°C 18.2°F-7.7°C 61% Calm Calm -- 26.70 in904.2 mb - 0.00 in0.0 mm 0.00 in0.0 mm
08:20 PM 30.0°F-1.1°C 18.2°F-7.7°C 61% Calm Calm -- 26.70 in904.2 mb - 0.00 in0.0 mm 0.00 in0.0 mm
08:25 PM 30.0°F-1.1°C 18.2°F-7.7°C 61% Calm Calm -- 26.70 in904.2 mb - 0.00 in0.0 mm 0.00 in0.0 mm
08:30 PM 30.0°F-1.1°C 17.8°F-7.9°C 60% Calm Calm -- 26.70 in904.2 mb - 0.00 in0.0 mm 0.00 in0.0 mm
08:35 PM 30.0°F-1.1°C 17.8°F-7.9°C 60% Calm Calm -- 26.70 in904.2 mb - 0.00 in0.0 mm 0.00 in0.0 mm
08:40 PM 30.0°F-1.1°C 15.3°F-9.3°C 54% Calm Calm -- 26.70 in904.2 mb - 0.00 in0.0 mm 0.00 in0.0 mm
08:45 PM 31.0°F-0.6°C 13.6°F-10.2°C 48% 2.3 mph WSW3.7 kmh WSW 3.5 mph5.6 kmh 26.70 in904.2 mb - 0.00 in0.0 mm 0.00 in0.0 mm
08:50 PM 31.0°F-0.6°C 14.5°F-9.7°C 50% 1.2 mph NNW1.9 kmh NNW 1.2 mph1.9 kmh 26.70 in904.2 mb - 0.00 in0.0 mm 0.00 in0.0 mm
08:55 PM 32.0°F0.0°C 15.0°F-9.4°C 49% Calm Calm 1.2 mph1.9 kmh 26.71 in904.5 mb - 0.00 in0.0 mm 0.00 in0.0 mm
09:00 PM 32.0°F0.0°C 16.8°F-8.4°C 53% Calm Calm 1.2 mph1.9 kmh 26.71 in904.5 mb - 0.00 in0.0 mm 0.00 in0.0 mm
09:10 PM 31.0°F-0.6°C 17.1°F-8.3°C 56% Calm Calm 1.2 mph1.9 kmh 26.71 in904.5 mb - 0.00 in0.0 mm 0.00 in0.0 mm
09:15 PM 31.0°F-0.6°C 17.1°F-8.3°C 56% Calm Calm -- 26.71 in904.5 mb - 0.00 in0.0 mm 0.00 in0.0 mm
09:20 PM 31.0°F-0.6°C 17.1°F-8.3°C 56% Calm Calm -- 26.72 in904.8 mb - 0.00 in0.0 mm 0.00 in0.0 mm
09:25 PM 31.0°F-0.6°C 16.7°F-8.5°C 55% Calm Calm -- 26.71 in904.5 mb - 0.00 in0.0 mm 0.00 in0.0 mm
09:30 PM 31.0°F-0.6°C 16.7°F-8.5°C 55% Calm Calm -- 26.72 in904.8 mb - 0.00 in0.0 mm 0.00 in0.0 mm
09:35 PM 31.0°F-0.6°C 16.3°F-8.7°C 54% 2.3 mph ENE3.7 kmh ENE 3.5 mph5.6 kmh 26.72 in904.8 mb - 0.00 in0.0 mm 0.00 in0.0 mm
09:40 PM 31.0°F-0.6°C 16.3°F-8.7°C 54% Calm Calm -- 26.72 in904.8 mb - 0.00 in0.0 mm 0.00 in0.0 mm
09:45 PM 31.0°F-0.6°C 17.1°F-8.3°C 56% Calm Calm -- 26.72 in904.8 mb - 0.00 in0.0 mm 0.00 in0.0 mm
09:50 PM 31.0°F-0.6°C 17.1°F-8.3°C 56% Calm Calm -- 26.73 in905.2 mb - 0.00 in0.0 mm 0.00 in0.0 mm
09:55 PM 31.0°F-0.6°C 17.9°F-7.8°C 58% Calm Calm -- 26.73 in905.2 mb - 0.00 in0.0 mm 0.00 in0.0 mm
10:00 PM 31.0°F-0.6°C 17.1°F-8.3°C 56% 1.2 mph SW1.9 kmh SW 2.3 mph3.7 kmh 26.73 in905.2 mb - 0.00 in0.0 mm 0.00 in0.0 mm
10:10 PM 31.0°F-0.6°C 17.5°F-8.1°C 57% Calm Calm -- 26.74 in905.5 mb - 0.00 in0.0 mm 0.00 in0.0 mm
10:15 PM 31.0°F-0.6°C 16.3°F-8.7°C 54% Calm Calm -- 26.73 in905.2 mb - 0.00 in0.0 mm 0.00 in0.0 mm
10:20 PM 31.0°F-0.6°C 16.3°F-8.7°C 54% 2.3 mph NE3.7 kmh NE 2.3 mph3.7 kmh 26.74 in905.5 mb - 0.00 in0.0 mm 0.00 in0.0 mm
10:25 PM 31.0°F-0.6°C 17.1°F-8.3°C 56% Calm Calm 1.2 mph1.9 kmh 26.75 in905.9 mb - 0.00 in0.0 mm 0.00 in0.0 mm
10:30 PM 31.0°F-0.6°C 15.8°F-9.0°C 53% Calm Calm -- 26.75 in905.9 mb - 0.00 in0.0 mm 0.00 in0.0 mm
10:35 PM 31.0°F-0.6°C 16.3°F-8.7°C 54% Calm Calm -- 26.75 in905.9 mb - 0.00 in0.0 mm 0.00 in0.0 mm
10:40 PM 31.0°F-0.6°C 13.1°F-10.5°C 47% 1.2 mph NW1.9 kmh NW 2.3 mph3.7 kmh 26.75 in905.9 mb - 0.00 in0.0 mm 0.00 in0.0 mm
10:45 PM 32.0°F0.0°C 12.0°F-11.1°C 43% Calm Calm -- 26.75 in905.9 mb - 0.00 in0.0 mm 0.00 in0.0 mm
10:50 PM 32.0°F0.0°C 11.5°F-11.4°C 42% Calm Calm -- 26.76 in906.2 mb - 0.00 in0.0 mm 0.00 in0.0 mm
10:55 PM 32.0°F0.0°C 10.9°F-11.7°C 41% Calm Calm 1.2 mph1.9 kmh 26.76 in906.2 mb - 0.00 in0.0 mm 0.00 in0.0 mm
11:00 PM 32.0°F0.0°C 10.9°F-11.7°C 41% Calm Calm 1.2 mph1.9 kmh 26.76 in906.2 mb - 0.00 in0.0 mm 0.00 in0.0 mm
11:10 PM 32.0°F0.0°C 10.4°F-12.0°C 40% 1.2 mph NW1.9 kmh NW 2.3 mph3.7 kmh 26.75 in905.9 mb - 0.00 in0.0 mm 0.00 in0.0 mm
11:15 PM 32.0°F0.0°C 11.5°F-11.4°C 42% Calm Calm 1.2 mph1.9 kmh 26.76 in906.2 mb - 0.00 in0.0 mm 0.00 in0.0 mm
11:20 PM 32.0°F0.0°C 10.9°F-11.7°C 41% Calm Calm -- 26.75 in905.9 mb - 0.00 in0.0 mm 0.00 in0.0 mm
11:25 PM 31.0°F-0.6°C 8.9°F-12.8°C 39% 1.2 mph NNE1.9 kmh NNE 2.3 mph3.7 kmh 26.76 in906.2 mb - 0.00 in0.0 mm 0.00 in0.0 mm
11:30 PM 32.0°F0.0°C 10.9°F-11.7°C 41% Calm Calm -- 26.76 in906.2 mb - 0.00 in0.0 mm 0.00 in0.0 mm
11:35 PM 32.0°F0.0°C 9.8°F-12.3°C 39% Calm Calm -- 26.76 in906.2 mb - 0.00 in0.0 mm 0.00 in0.0 mm
11:40 PM 32.0°F0.0°C 10.4°F-12.0°C 40% Calm Calm -- 26.76 in906.2 mb - 0.00 in0.0 mm 0.00 in0.0 mm
11:45 PM 32.0°F0.0°C 10.4°F-12.0°C 40% Calm Calm -- 26.76 in906.2 mb - 0.00 in0.0 mm 0.00 in0.0 mm
11:50 PM 32.0°F0.0°C 11.5°F-11.4°C 42% Calm Calm -- 26.76 in906.2 mb - 0.00 in0.0 mm 0.00 in0.0 mm
11:55 PM 31.0°F-0.6°C 8.9°F-12.8°C 39% 1.2 mph NW1.9 kmh NW 1.2 mph1.9 kmh 26.76 in906.2 mb - 0.00 in0.0 mm 0.00 in0.0 mm